Time;durP1;ratioP1;P1;durP2;ratioP2;P2;SDS_P1;SDS_P2;PMS_P1;PMS_P2;Temp;Humidity;BMP_temperature;BMP_pressure;BME280_temperature;BME280_humidity;BME280_pressure;Samples;Min_cycle;Max_cycle;Signal;HPM_P1;HPM_P2
2023/10/19 00:00:55;;;;;;;0.10;0.10;;;;;;;15.22;80.09;97654.31;7360816;19;20927;-60
2023/10/19 00:03:23;;;;;;;0.10;0.10;;;;;;;15.22;80.31;97649.03;7360215;19;20723;-60
2023/10/19 00:05:48;;;;;;;;;;;;;;;15.28;78.93;97647.66;7360839;19;20645;-60
2023/10/19 00:08:16;;;;;;;0.10;0.10;;;;;;;15.21;79.73;97636.88;7358514;19;19935;-60
2023/10/19 00:10:43;;;;;;;0.10;0.10;;;;;;;15.23;79.55;97645.44;7355960;19;20020;-60
2023/10/19 00:13:13;;;;;;;0.20;0.20;;;;;;;15.12;79.77;97621.94;7360663;19;20014;-60
2023/10/19 00:16:22;;;;;;;0.10;0.10;;;;;;;15.22;79.83;97637.69;7358227;19;20039;-60
2023/10/19 00:18:30;;;;;;;0.10;0.10;;;;;;;15.20;79.65;97622.03;7358282;19;20010;-60
2023/10/19 00:21:19;;;;;;;0.05;0.05;;;;;;;15.20;79.82;97619.41;7355889;19;20014;-60
2023/10/19 00:23:47;;;;;;;0.10;0.10;;;;;;;15.20;80.10;97618.59;7356519;19;20049;-59
2023/10/19 00:26:19;;;;;;;0.10;0.10;;;;;;;15.20;80.13;97613.34;7356833;19;20015;-60
2023/10/19 00:28:46;;;;;;;0.10;0.10;;;;;;;15.09;80.26;97595.91;7350016;19;20014;-60
2023/10/19 00:31:13;;;;;;;0.10;0.10;;;;;;;15.21;80.10;97615.03;7357770;19;20020;-60
2023/10/19 00:33:39;;;;;;;0.10;0.10;;;;;;;15.20;80.27;97608.91;7361630;19;20002;-59
2023/10/19 00:36:08;;;;;;;0.10;0.10;;;;;;;15.22;80.41;97603.53;7355045;19;20022;-60
2023/10/19 00:41:05;;;;;;;0.10;0.10;;;;;;;15.22;80.00;97596.47;7359706;19;20020;-60
2023/10/19 00:43:42;;;;;;;0.10;0.10;;;;;;;15.23;80.08;97598.13;7361414;19;20135;-60
2023/10/19 00:46:20;;;;;;;0.10;0.10;;;;;;;15.24;80.02;97591.06;7361520;19;20018;-59
2023/10/19 00:48:50;;;;;;;;;;;;;;;15.28;79.28;97585.38;7370364;19;20426;-59
2023/10/19 00:51:27;;;;;;;0.10;0.10;;;;;;;15.09;80.15;97564.38;7366026;19;19968;-60
2023/10/19 00:53:58;;;;;;;0.10;0.10;;;;;;;15.25;80.01;97582.19;7364020;19;20006;-60
2023/10/19 00:56:31;;;;;;;0.10;0.10;;;;;;;15.22;80.08;97585.97;7355298;19;20014;-60
2023/10/19 00:59:07;;;;;;;0.10;0.10;;;;;;;15.21;79.94;97579.03;7360427;19;20014;-60
2023/10/19 01:01:40;;;;;;;0.10;0.10;;;;;;;15.17;80.25;97568.94;7365892;19;20030;-60
2023/10/19 01:04:06;;;;;;;0.15;0.15;;;;;;;15.20;80.33;97576.53;7358313;19;20014;-60
2023/10/19 01:06:33;;;;;;;0.10;0.10;;;;;;;15.19;79.98;97575.72;7354443;19;20010;-61
2023/10/19 01:08:58;;;;;;;0.15;0.15;;;;;;;15.19;79.97;97569.63;7366808;19;20128;-60
2023/10/19 01:11:28;;;;;;;0.10;0.10;;;;;;;15.20;79.92;97571.28;7364682;19;20926;-60
2023/10/19 01:13:54;;;;;;;0.00;0.00;;;;;;;15.18;80.46;97568.81;7363505;19;20061;-60
2023/10/19 01:16:26;;;;;;;0.08;0.08;;;;;;;15.18;80.05;97563.53;7366586;19;20018;-60
2023/10/19 01:18:54;;;;;;;0.20;0.20;;;;;;;15.15;79.97;97558.56;7365661;19;20482;-60
2023/10/19 01:21:37;;;;;;;0.10;0.10;;;;;;;15.19;79.95;97554.69;7362072;19;20006;-60
2023/10/19 01:24:07;;;;;;;0.10;0.10;;;;;;;15.13;80.21;97552.63;7365344;19;20053;-60
2023/10/19 01:26:37;;;;;;;0.10;0.10;;;;;;;15.14;80.22;97551.66;7365558;19;20062;-61
2023/10/19 01:29:09;;;;;;;0.10;0.10;;;;;;;15.13;80.29;97544.75;7365135;19;20014;-60
2023/10/19 01:31:50;;;;;;;0.10;0.10;;;;;;;15.14;80.52;97551.66;7364882;19;20018;-60
2023/10/19 01:34:19;;;;;;;0.10;0.10;;;;;;;15.13;80.62;97544.75;7364192;19;20094;-59
2023/10/19 01:36:45;;;;;;;0.10;0.10;;;;;;;15.14;80.71;97540.31;7362473;19;20070;-61
2023/10/19 01:39:11;;;;;;;0.10;0.10;;;;;;;15.15;80.34;97537.53;7366234;19;20428;-60
2023/10/19 01:41:37;;;;;;;0.10;0.10;;;;;;;15.16;80.42;97539.22;7366779;19;20640;-59
2023/10/19 01:44:06;;;;;;;0.10;0.10;;;;;;;15.16;80.65;97531.31;7352768;19;20014;-60
2023/10/19 01:46:34;;;;;;;0.10;0.10;;;;;;;15.17;80.29;97527.72;7367462;19;20014;-60
2023/10/19 01:49:02;;;;;;;0.10;0.10;;;;;;;15.17;80.49;97525.09;7361384;19;20110;-61
2023/10/19 01:51:29;;;;;;;0.10;0.10;;;;;;;15.18;80.21;97521.50;7372213;19;20014;-60
2023/10/19 01:53:56;;;;;;;0.10;0.10;;;;;;;15.06;80.61;97504.22;7360183;19;20018;-60
2023/10/19 01:56:22;;;;;;;0.10;0.10;;;;;;;15.19;80.43;97517.88;7365934;19;20018;-60
2023/10/19 01:58:51;;;;;;;0.10;0.10;;;;;;;15.17;80.42;97509.31;7361711;19;20019;-60
2023/10/19 02:01:20;;;;;;;0.10;0.10;;;;;;;15.19;80.39;97509.16;7355556;19;20416;-60
2023/10/19 02:03:47;;;;;;;0.10;0.10;;;;;;;15.19;80.22;97502.13;7365653;19;20035;-59
2023/10/19 02:06:17;;;;;;;0.10;0.10;;;;;;;15.20;80.18;97502.94;7360529;19;20679;-60
2023/10/19 02:08:50;;;;;;;0.08;0.08;;;;;;;15.22;80.48;97491.31;7366194;19;20021;-60
2023/10/19 02:11:19;;;;;;;0.00;0.00;;;;;;;15.18;80.67;97489.13;7366782;19;20603;-60
2023/10/19 02:13:49;;;;;;;0.10;0.10;;;;;;;15.18;80.12;97479.44;7359915;19;20014;-60
2023/10/19 02:16:16;;;;;;;0.10;0.10;;;;;;;15.18;80.30;97482.06;7363240;19;20101;-60
2023/10/19 02:18:44;;;;;;;0.10;0.10;;;;;;;15.21;80.20;97473.91;7364142;19;20007;-59
2023/10/19 02:21:12;;;;;;;0.10;0.10;;;;;;;15.17;80.62;97467.28;7365216;19;20034;-60
2023/10/19 02:23:38;;;;;;;0.10;0.10;;;;;;;15.18;80.53;97468.91;7364492;19;20805;-61
2023/10/19 02:26:04;;;;;;;0.10;0.10;;;;;;;15.14;80.37;97445.69;7368191;19;20765;-60
2023/10/19 02:28:38;;;;;;;0.10;0.10;;;;;;;15.17;80.32;97440.97;7361726;19;20006;-60
2023/10/19 02:31:15;;;;;;;0.08;0.08;;;;;;;15.07;80.50;97427.03;7367245;19;20018;-60
2023/10/19 02:33:41;;;;;;;0.10;0.10;;;;;;;15.16;80.25;97436.72;7361007;19;20367;-60
2023/10/19 02:36:12;;;;;;;0.10;0.10;;;;;;;15.16;80.30;97431.44;7368307;19;20042;-59
2023/10/19 02:38:39;;;;;;;0.10;0.10;;;;;;;15.17;80.47;97429.66;7337295;19;20010;-60
2023/10/19 02:41:04;;;;;;;0.10;0.10;;;;;;;15.17;80.64;97419.97;7367238;19;20098;-60
2023/10/19 02:43:32;;;;;;;0.10;0.10;;;;;;;15.17;80.22;97417.34;7372281;19;20074;-60
2023/10/19 02:45:59;;;;;;;0.10;0.10;;;;;;;15.17;80.58;97413.88;7364829;19;20854;-60
2023/10/19 02:48:24;;;;;;;0.10;0.10;;;;;;;15.17;80.57;97412.06;7367300;19;20003;-60
2023/10/19 02:50:50;;;;;;;0.10;0.10;;;;;;;15.17;80.52;97398.94;7370940;19;20597;-61
2023/10/19 02:53:18;;;;;;;0.10;0.10;;;;;;;15.10;80.06;97382.06;7360098;19;20007;-60
2023/10/19 02:55:44;;;;;;;0.10;0.10;;;;;;;15.17;80.32;97388.41;7362607;19;20090;-60
2023/10/19 02:58:09;;;;;;;0.10;0.10;;;;;;;15.17;80.66;97382.34;7360940;19;20025;-60
2023/10/19 03:00:37;;;;;;;0.10;0.10;;;;;;;15.19;80.16;97375.94;7362925;19;20022;-60
2023/10/19 03:03:05;;;;;;;0.10;0.10;;;;;;;15.06;80.57;97346.56;7367936;19;20625;-60
2023/10/19 03:05:31;;;;;;;0.10;0.10;;;;;;;15.18;80.24;97366.41;7359996;19;20011;-60
2023/10/19 03:07:56;;;;;;;0.10;0.10;;;;;;;15.17;80.48;97356.88;7365213;19;20033;-60
2023/10/19 03:10:34;;;;;;;0.10;0.10;;;;;;;15.18;80.34;97348.00;7362066;19;20475;-60
2023/10/19 03:13:01;;;;;;;0.10;0.10;;;;;;;15.17;80.47;97341.09;7364721;19;20027;-60
2023/10/19 03:15:30;;;;;;;0.10;0.10;;;;;;;15.17;80.17;97333.22;7361967;19;20459;-61
2023/10/19 03:17:55;;;;;;;0.10;0.10;;;;;;;15.13;80.54;97323.97;7333961;19;20046;-60
2023/10/19 03:20:23;;;;;;;0.10;0.10;;;;;;;15.18;80.55;97327.00;7361872;19;20007;-60
2023/10/19 03:22:49;;;;;;;0.10;0.10;;;;;;;15.18;80.30;97321.72;7361971;19;20010;-60
2023/10/19 03:26:17;;;;;;;0.10;0.10;;;;;;;15.19;80.17;97322.56;7362722;19;20553;-61
2023/10/19 03:28:08;;;;;;;0.10;0.10;;;;;;;15.19;80.45;97318.13;7356025;19;20023;-60
2023/10/19 03:30:38;;;;;;;0.10;0.10;;;;;;;15.20;80.27;97303.19;7365983;19;20019;-59
2023/10/19 03:33:04;;;;;;;0.10;0.10;;;;;;;15.20;80.56;97296.13;7364041;19;20014;-60
2023/10/19 03:35:30;;;;;;;0.10;0.10;;;;;;;15.21;80.43;97289.91;7368095;19;20407;-60
2023/10/19 03:37:58;;;;;;;0.10;0.10;;;;;;;15.20;80.63;97288.22;7363263;19;20023;-60
2023/10/19 03:40:34;;;;;;;0.10;0.10;;;;;;;15.21;80.59;97295.16;7358979;19;20001;-61
2023/10/19 03:42:59;;;;;;;0.10;0.10;;;;;;;15.20;80.55;97290.03;7365975;19;20014;-60
2023/10/19 03:45:25;;;;;;;0.10;0.10;;;;;;;15.20;80.44;97277.72;7372547;19;20494;-60
2023/10/19 03:47:55;;;;;;;0.10;0.10;;;;;;;15.22;80.55;97278.41;7367322;19;20052;-60
2023/10/19 03:50:21;;;;;;;0.10;0.10;;;;;;;15.22;80.57;97275.78;7365110;19;20516;-60
2023/10/19 03:52:46;;;;;;;0.10;0.10;;;;;;;15.23;80.52;97280.06;7363538;19;20014;-60
2023/10/19 03:55:15;;;;;;;0.10;0.10;;;;;;;15.23;80.42;97274.81;7354049;19;20046;-61
2023/10/19 03:57:41;;;;;;;0.10;0.10;;;;;;;15.24;80.42;97263.31;7367275;19;20027;-60
2023/10/19 04:00:12;;;;;;;0.10;0.10;;;;;;;15.26;80.42;97265.81;7370786;19;20106;-60
2023/10/19 04:02:38;;;;;;;0.10;0.10;;;;;;;15.26;80.29;97268.44;7359199;19;20018;-60
2023/10/19 04:05:04;;;;;;;0.10;0.10;;;;;;;15.19;80.40;97249.78;7361271;19;20014;-60
2023/10/19 04:07:31;;;;;;;0.10;0.10;;;;;;;15.26;80.02;97256.13;7346738;19;20010;-60
2023/10/19 04:09:59;;;;;;;0.10;0.10;;;;;;;15.25;80.16;97248.38;7360305;19;20010;-60
2023/10/19 04:12:28;;;;;;;0.10;0.10;;;;;;;15.27;80.49;97252.50;7365356;19;20455;-60
2023/10/19 04:14:54;;;;;;;0.10;0.10;;;;;;;15.28;80.23;97248.91;7358028;19;20862;-60
2023/10/19 04:17:21;;;;;;;0.10;0.10;;;;;;;15.29;80.21;97240.03;7367375;19;20050;-59
2023/10/19 04:19:48;;;;;;;0.10;0.10;;;;;;;15.29;79.93;97245.28;7359033;19;20018;-60
2023/10/19 04:22:22;;;;;;;0.10;0.10;;;;;;;15.29;80.40;97234.78;7361463;19;20006;-61
2023/10/19 04:24:48;;;;;;;0.10;0.10;;;;;;;15.31;80.24;97237.28;7365164;19;20456;-60
2023/10/19 04:27:14;;;;;;;0.10;0.10;;;;;;;15.32;80.06;97231.03;7362202;19;20007;-60
2023/10/19 04:29:41;;;;;;;0.10;0.10;;;;;;;15.26;80.25;97221.13;7359824;19;20082;-60
2023/10/19 04:32:06;;;;;;;0.10;0.10;;;;;;;15.34;80.00;97230.88;7364963;19;20006;-60
2023/10/19 04:34:32;;;;;;;0.10;0.10;;;;;;;15.30;80.14;97220.66;7362506;19;21700;-60
2023/10/19 04:36:57;;;;;;;0.10;0.10;;;;;;;15.32;79.90;97212.63;7361308;19;20085;-61
2023/10/19 04:39:24;;;;;;;0.10;0.10;;;;;;;15.27;79.95;97205.19;7354628;19;20018;-60
2023/10/19 04:41:49;;;;;;;0.10;0.10;;;;;;;15.36;79.90;97210.50;7355480;19;20471;-60
2023/10/19 04:44:15;;;;;;;0.10;0.10;;;;;;;15.36;79.79;97206.09;7355338;19;20043;-60
2023/10/19 04:46:41;;;;;;;0.10;0.10;;;;;;;15.37;80.28;97202.50;7361199;19;20842;-60
2023/10/19 04:49:07;;;;;;;0.10;0.10;;;;;;;15.31;79.92;97185.53;7361699;19;20006;-61
2023/10/19 04:51:34;;;;;;;0.10;0.10;;;;;;;15.41;79.85;97205.63;7363089;19;20009;-60
2023/10/19 04:53:59;;;;;;;0.10;0.10;;;;;;;15.41;79.86;97195.13;7361297;19;20031;-60
2023/10/19 04:56:25;;;;;;;0.10;0.10;;;;;;;15.42;80.19;97194.16;7364714;19;20070;-60
2023/10/19 04:58:50;;;;;;;0.10;0.10;;;;;;;15.41;80.07;97190.72;7362374;19;20629;-61
2023/10/19 05:01:15;;;;;;;0.10;0.10;;;;;;;15.43;79.81;97187.91;7356884;19;20018;-59
2023/10/19 05:03:41;;;;;;;0.10;0.10;;;;;;;15.44;80.07;97189.56;7352638;19;20533;-60
2023/10/19 05:06:09;;;;;;;0.03;0.03;;;;;;;15.43;80.04;97183.47;7361893;19;20018;-60
2023/10/19 05:08:34;;;;;;;;;;;;;;;15.50;79.37;97183.69;7356300;19;20773;-60
2023/10/19 05:11:00;;;;;;;0.10;0.10;;;;;;;15.34;79.63;97162.53;7362355;19;19930;-60
2023/10/19 05:13:26;;;;;;;0.10;0.10;;;;;;;15.46;79.64;97177.09;7357930;19;20025;-60
2023/10/19 05:15:53;;;;;;;0.05;0.05;;;;;;;15.44;80.00;97171.16;7362031;19;20013;-60
2023/10/19 05:18:19;;;;;;;0.10;0.10;;;;;;;15.45;79.82;97170.19;7362157;19;20039;-60
2023/10/19 05:20:46;;;;;;;0.10;0.10;;;;;;;15.42;79.79;97165.25;7358013;19;20558;-61
2023/10/19 05:23:13;;;;;;;0.10;0.10;;;;;;;15.45;79.80;97170.19;7360524;19;20017;-60
2023/10/19 05:25:39;;;;;;;0.10;0.10;;;;;;;15.41;79.84;97163.56;7363324;19;20022;-60
2023/10/19 05:28:05;;;;;;;0.10;0.10;;;;;;;15.45;79.95;97170.19;7372234;19;20014;-61
2023/10/19 05:30:31;;;;;;;0.10;0.10;;;;;;;15.46;79.64;97167.41;7371599;19;20008;-60
2023/10/19 05:32:57;;;;;;;0.10;0.10;;;;;;;15.47;79.60;97158.53;7370781;19;20017;-60
2023/10/19 05:35:26;;;;;;;0.10;0.10;;;;;;;15.38;79.87;97142.84;7361516;19;20006;-60
2023/10/19 05:37:52;;;;;;;0.10;0.10;;;;;;;15.49;79.62;97155.75;7365954;19;20513;-60
2023/10/19 05:40:18;;;;;;;0.00;0.00;;;;;;;15.43;80.04;97135.34;7367858;19;20120;-61
2023/10/19 05:42:45;;;;;;;0.10;0.10;;;;;;;15.50;79.74;97139.00;7366586;19;20010;-60
2023/10/19 05:45:13;;;;;;;0.10;0.10;;;;;;;15.50;79.73;97131.94;7367835;19;20022;-60
2023/10/19 05:47:38;;;;;;;0.10;0.10;;;;;;;15.42;79.96;97123.19;7367818;19;20033;-60
2023/10/19 05:50:04;;;;;;;0.10;0.10;;;;;;;15.51;79.82;97130.13;7370352;19;20478;-60
2023/10/19 05:52:29;;;;;;;0.10;0.10;;;;;;;15.38;79.86;97106.88;7367015;19;20105;-61
2023/10/19 05:54:55;;;;;;;0.10;0.10;;;;;;;15.52;79.87;97129.16;7363400;19;20014;-61
2023/10/19 05:57:22;;;;;;;0.10;0.10;;;;;;;15.52;79.48;97123.91;7366026;19;20897;-60
2023/10/19 05:59:47;;;;;;;0.10;0.10;;;;;;;15.52;79.75;97129.16;7363421;19;20025;-61
2023/10/19 06:02:13;;;;;;;0.10;0.10;;;;;;;15.43;79.60;97112.50;7361728;19;20014;-60
2023/10/19 06:04:38;;;;;;;0.00;0.00;;;;;;;15.52;79.62;97129.16;7365319;19;19998;-60
2023/10/19 06:07:03;;;;;;;0.10;0.10;;;;;;;15.52;79.49;97129.16;7367851;19;20089;-60
2023/10/19 06:09:29;;;;;;;0.10;0.10;;;;;;;15.52;79.43;97122.09;7361488;19;20003;-61
2023/10/19 06:11:58;;;;;;;0.10;0.10;;;;;;;15.52;79.62;97111.59;7367505;19;20007;-60
2023/10/19 06:14:23;;;;;;;0.10;0.10;;;;;;;15.54;79.72;97120.13;7362230;19;20776;-61
2023/10/19 06:16:48;;;;;;;0.10;0.10;;;;;;;15.54;79.87;97116.69;7367850;19;20011;-61
2023/10/19 06:19:16;;;;;;;0.10;0.10;;;;;;;15.53;79.47;97115.03;7367417;19;20238;-60
2023/10/19 06:21:41;;;;;;;0.10;0.10;;;;;;;15.54;79.44;97101.72;7363337;19;20399;-60
2023/10/19 06:24:07;;;;;;;0.10;0.10;;;;;;;15.48;79.93;97091.00;7365735;19;20010;-60
2023/10/19 06:26:32;;;;;;;0.10;0.10;;;;;;;15.55;79.39;97103.38;7363028;19;20441;-60
2023/10/19 06:29:02;;;;;;;0.10;0.10;;;;;;;15.53;79.31;97100.06;7362175;19;20010;-60
2023/10/19 06:31:28;;;;;;;0.10;0.10;;;;;;;15.56;79.65;97109.44;7362280;19;20022;-60
2023/10/19 06:33:53;;;;;;;0.10;0.10;;;;;;;15.44;79.54;97084.41;7367153;19;20006;-60
2023/10/19 06:36:19;;;;;;;0.10;0.10;;;;;;;15.56;79.74;97098.94;7362619;19;20852;-61
2023/10/19 06:38:44;;;;;;;0.10;0.10;;;;;;;15.53;79.85;97091.38;7358451;19;20006;-61
2023/10/19 06:41:14;;;;;;;0.20;0.20;;;;;;;15.59;79.65;97098.63;7351664;19;20024;-60
2023/10/19 06:43:39;;;;;;;0.10;0.10;;;;;;;15.57;79.57;97095.34;7362226;19;20636;-60
2023/10/19 06:46:05;;;;;;;0.10;0.10;;;;;;;15.56;79.75;97093.66;7357714;19;20010;-61
2023/10/19 06:48:31;;;;;;;0.05;0.05;;;;;;;15.56;79.75;97094.53;7365002;19;20013;-61
2023/10/19 06:50:57;;;;;;;0.10;0.10;;;;;;;15.56;79.78;97099.78;7362926;19;20015;-61
2023/10/19 06:53:22;;;;;;;0.10;0.10;;;;;;;15.55;79.48;97099.91;7367592;19;20030;-61
2023/10/19 06:55:48;;;;;;;0.00;0.00;;;;;;;15.57;79.43;97106.69;7364237;19;20019;-59
2023/10/19 06:58:14;;;;;;;0.10;0.10;;;;;;;15.57;79.51;97105.88;7363891;19;20078;-59
2023/10/19 07:00:43;;;;;;;0.10;0.10;;;;;;;15.58;79.35;97107.50;7361172;19;20054;-60
2023/10/19 07:03:09;;;;;;;0.10;0.10;;;;;;;15.52;79.41;97097.63;7365886;19;20010;-61
2023/10/19 07:05:34;;;;;;;0.10;0.10;;;;;;;15.58;79.48;97102.25;7362313;19;20462;-61
2023/10/19 07:08:01;;;;;;;0.10;0.10;;;;;;;15.57;79.27;97101.44;7363981;19;19999;-60
2023/10/19 07:10:27;;;;;;;;;;;;;;;15.65;79.06;97102.47;7342789;19;20110;-60
2023/10/19 07:12:55;;;;;;;0.10;0.10;;;;;;;15.60;79.63;97100.28;7352164;19;19953;-60
2023/10/19 07:15:25;;;;;;;0.10;0.10;;;;;;;15.48;79.32;97080.50;7356586;19;20019;-60
2023/10/19 07:17:58;;;;;;;0.10;0.10;;;;;;;15.58;79.72;97097.00;7361352;19;20046;-60
2023/10/19 07:20:32;;;;;;;0.10;0.10;;;;;;;15.57;79.33;97096.16;7363846;19;20006;-60
2023/10/19 07:23:18;;;;;;;0.10;0.10;;;;;;;15.61;79.28;97095.84;7363072;19;20058;-61
2023/10/19 07:25:55;;;;;;;0.10;0.10;;;;;;;15.61;79.40;97096.66;7356904;19;20438;-60
2023/10/19 07:28:31;;;;;;;;;;;;;;;15.65;78.74;97086.69;7361968;19;20010;-61
2023/10/19 07:30:57;;;;;;;0.10;0.10;;;;;;;15.59;79.51;97096.00;7362381;19;19948;-61
2023/10/19 07:33:22;;;;;;;0.10;0.10;;;;;;;15.59;79.37;97093.38;7363105;19;20014;-61
2023/10/19 07:35:54;;;;;;;0.10;0.10;;;;;;;15.58;79.75;97087.28;7362633;19;20007;-60
2023/10/19 07:38:22;;;;;;;0.10;0.10;;;;;;;15.62;79.50;97082.56;7361626;19;20018;-60
2023/10/19 07:40:48;;;;;;;0.20;0.20;;;;;;;15.61;79.64;97090.56;7359823;19;20034;-60
2023/10/19 07:43:13;;;;;;;0.13;0.13;;;;;;;15.61;79.37;97080.06;7367285;19;20010;-61
2023/10/19 07:45:38;;;;;;;0.10;0.10;;;;;;;15.63;79.45;97086.88;7370463;19;20888;-60
2023/10/19 07:48:10;;;;;;;0.10;0.10;;;;;;;15.66;79.70;97083.94;7366699;19;20014;-61
2023/10/19 07:50:37;;;;;;;0.10;0.10;;;;;;;15.67;79.61;97080.31;7337988;19;20010;-61
2023/10/19 07:53:03;;;;;;;0.10;0.10;;;;;;;15.66;79.80;97083.94;7364066;19;20604;-61
2023/10/19 07:55:31;;;;;;;0.10;0.10;;;;;;;15.71;79.38;97081.66;7361334;19;20022;-61
2023/10/19 07:57:59;;;;;;;0.10;0.10;;;;;;;15.73;79.39;97090.22;7361844;19;20035;-61
2023/10/19 08:00:25;;;;;;;0.10;0.10;;;;;;;15.75;79.27;97088.25;7363135;19;20010;-60
2023/10/19 08:02:53;;;;;;;0.10;0.10;;;;;;;15.78;79.32;97077.41;7358940;19;20501;-61
2023/10/19 08:05:19;;;;;;;0.20;0.20;;;;;;;15.77;79.43;97081.03;7352349;19;19999;-61
2023/10/19 08:07:47;;;;;;;0.10;0.10;;;;;;;15.70;79.35;97069.47;7356026;19;20296;-60
2023/10/19 08:10:15;;;;;;;0.10;0.10;;;;;;;15.83;79.33;97085.66;7361043;19;20023;-60
2023/10/19 08:12:41;;;;;;;0.10;0.10;;;;;;;15.86;79.14;97083.69;7358338;19;20010;-60
2023/10/19 08:15:08;;;;;;;0.10;0.10;;;;;;;15.88;79.08;97082.56;7358433;19;20613;-61
2023/10/19 08:17:38;;;;;;;0.10;0.10;;;;;;;15.91;79.29;97081.41;7359561;19;20014;-61
2023/10/19 08:20:04;;;;;;;0.10;0.10;;;;;;;15.93;79.45;97085.56;7353654;19;20406;-61
2023/10/19 08:22:30;;;;;;;0.10;0.10;;;;;;;15.95;79.33;97080.13;7357751;19;20015;-61
2023/10/19 08:24:56;;;;;;;0.10;0.10;;;;;;;15.97;79.34;97092.16;7358403;19;20613;-60
2023/10/19 08:27:23;;;;;;;0.10;0.10;;;;;;;15.99;79.44;97078.84;7358990;19;20036;-60
2023/10/19 08:29:49;;;;;;;0.10;0.10;;;;;;;16.00;78.99;97081.31;7357804;19;20021;-60
2023/10/19 08:32:16;;;;;;;0.10;0.10;;;;;;;16.01;78.95;97077.69;7362115;19;20505;-61
2023/10/19 08:34:41;;;;;;;0.10;0.10;;;;;;;16.04;79.02;97077.38;7355351;19;20033;-60
2023/10/19 08:37:07;;;;;;;0.10;0.10;;;;;;;15.94;78.91;97055.63;7359474;19;20507;-60
2023/10/19 08:39:36;;;;;;;0.10;0.10;;;;;;;16.09;79.18;97067.19;7360042;19;20651;-61
2023/10/19 08:42:05;;;;;;;0.10;0.10;;;;;;;16.13;79.20;97065.09;7366322;19;20011;-61
2023/10/19 08:44:32;;;;;;;0.10;0.10;;;;;;;16.11;78.95;97058.31;7359968;19;20016;-61
2023/10/19 08:46:59;;;;;;;0.00;0.00;;;;;;;16.13;79.09;97059.81;7357634;19;20010;-60
2023/10/19 08:49:26;;;;;;;0.10;0.10;;;;;;;16.14;78.91;97061.47;7354946;19;20081;-60
2023/10/19 08:51:53;;;;;;;0.10;0.10;;;;;;;16.12;79.00;97052.91;7356258;19;20010;-61
2023/10/19 08:54:19;;;;;;;0.10;0.10;;;;;;;16.19;78.98;97061.81;7357262;19;20022;-61
2023/10/19 08:56:47;;;;;;;0.10;0.10;;;;;;;16.20;78.72;97058.19;7358555;19;20344;-61
2023/10/19 08:59:12;;;;;;;;;;;;;;;16.29;78.17;97059.88;7360175;19;20365;-61
2023/10/19 09:01:38;;;;;;;0.10;0.10;;;;;;;16.25;78.97;97055.91;7359061;19;19914;-60
2023/10/19 09:04:07;;;;;;;0.10;0.10;;;;;;;16.26;78.79;97057.53;7367913;19;20019;-61
2023/10/19 09:06:41;;;;;;;0.10;0.10;;;;;;;16.31;78.67;97062.34;7366440;19;20014;-61
2023/10/19 09:09:18;;;;;;;0.10;0.10;;;;;;;16.30;78.68;97058.88;7360219;19;20518;-61
2023/10/19 09:11:44;;;;;;;;;;;;;;;16.40;78.00;97060.56;7363870;19;20014;-61
2023/10/19 09:14:12;;;;;;;0.10;0.10;;;;;;;16.28;78.66;97058.22;7363117;19;19922;-61
2023/10/19 09:16:46;;;;;;;0.10;0.10;;;;;;;16.33;78.42;97066.47;7366788;19;20010;-61
2023/10/19 09:19:14;;;;;;;0.10;0.10;;;;;;;16.31;78.46;97073.69;7361587;19;20014;-61
2023/10/19 09:21:39;;;;;;;0.10;0.10;;;;;;;16.31;78.84;97065.78;7364573;19;20015;-61
2023/10/19 09:24:09;;;;;;;0.10;0.10;;;;;;;16.29;78.95;97065.13;7364345;19;20017;-61
2023/10/19 09:26:37;;;;;;;0.15;0.15;;;;;;;16.29;78.88;97059.88;7371423;19;20044;-60
2023/10/19 09:29:03;;;;;;;0.10;0.10;;;;;;;16.25;79.15;97066.44;7370019;19;20006;-61
2023/10/19 09:31:30;;;;;;;0.10;0.10;;;;;;;16.26;79.12;97070.72;7367689;19;20106;-61
2023/10/19 09:33:56;;;;;;;0.10;0.10;;;;;;;16.27;79.07;97068.91;7351595;19;20490;-61
2023/10/19 09:36:26;;;;;;;0.10;0.10;;;;;;;16.22;78.74;97053.59;7366167;19;20106;-60
2023/10/19 09:38:52;;;;;;;0.10;0.10;;;;;;;16.24;79.33;97059.53;7364006;19;20017;-60
2023/10/19 09:41:19;;;;;;;0.10;0.10;;;;;;;16.28;78.96;97063.50;7364121;19;20014;-61
2023/10/19 09:43:48;;;;;;;0.10;0.10;;;;;;;16.30;79.02;97068.59;7363470;19;20018;-61
2023/10/19 09:46:22;;;;;;;0.10;0.10;;;;;;;16.32;78.74;97070.09;7364181;19;20859;-61
2023/10/19 09:48:48;;;;;;;0.10;0.10;;;;;;;16.28;79.02;97066.13;7366820;19;20474;-60
2023/10/19 09:51:16;;;;;;;0.10;0.10;;;;;;;16.30;79.33;97071.22;7361759;19;20053;-60
2023/10/19 09:53:44;;;;;;;0.10;0.10;;;;;;;16.26;79.20;97070.72;7361071;19;20006;-61
2023/10/19 09:56:21;;;;;;;0.10;0.10;;;;;;;16.33;78.88;97071.75;7366685;19;20022;-61
2023/10/19 09:58:51;;;;;;;0.10;0.10;;;;;;;16.29;78.94;97067.78;7364527;19;20585;-60
2023/10/19 10:01:16;;;;;;;0.10;0.10;;;;;;;16.25;79.18;97063.81;7362938;19;20014;-60
2023/10/19 10:03:51;;;;;;;0.10;0.10;;;;;;;16.34;79.26;97073.38;7361071;19;20042;-60
2023/10/19 10:06:50;;;;;;;0.05;0.05;;;;;;;16.35;79.47;97085.56;7362781;19;20804;-61
2023/10/19 10:09:21;;;;;;;0.10;0.10;;;;;;;16.25;79.20;97058.53;7362303;19;20018;-60
2023/10/19 10:11:49;;;;;;;0.10;0.10;;;;;;;16.40;79.04;97076.34;7365151;19;20434;-61
2023/10/19 10:14:25;;;;;;;0.10;0.10;;;;;;;16.43;79.48;97076.06;7360316;19;20010;-60
2023/10/19 10:17:02;;;;;;;0.05;0.05;;;;;;;16.37;79.29;97060.88;7359070;19;20010;-60
2023/10/19 10:19:28;;;;;;;0.10;0.10;;;;;;;16.44;79.31;97072.44;7359771;19;20070;-60
2023/10/19 10:22:20;;;;;;;0.10;0.10;;;;;;;16.50;79.27;97077.06;7361548;19;20089;-61
2023/10/19 10:24:46;;;;;;;0.10;0.10;;;;;;;16.45;79.05;97068.81;7363653;19;20741;-60
2023/10/19 10:27:17;;;;;;;0.10;0.10;;;;;;;16.54;79.21;97078.38;7361068;19;20011;-60
2023/10/19 10:30:01;;;;;;;0.10;0.10;;;;;;;16.58;78.91;97079.72;7368917;19;20115;-61
2023/10/19 10:32:48;;;;;;;0.10;0.10;;;;;;;16.62;79.04;97073.13;7369315;19;20021;-60
2023/10/19 10:35:35;;;;;;;0.10;0.10;;;;;;;16.65;79.05;97075.44;7365471;19;20529;-59
2023/10/19 10:38:01;;;;;;;;;;;;;;;16.71;78.67;97069.53;7368898;19;20128;-61
2023/10/19 10:40:26;;;;;;;0.10;0.10;;;;;;;16.70;79.23;97067.06;7365572;19;19997;-61
2023/10/19 10:43:05;;;;;;;0.10;0.10;;;;;;;16.73;78.87;97067.59;7368201;19;20002;-60
2023/10/19 10:45:30;;;;;;;0.10;0.10;;;;;;;16.76;79.21;97072.53;7364759;19;20010;-61
2023/10/19 10:47:56;;;;;;;0.10;0.10;;;;;;;16.79;78.89;97080.13;7362954;19;20026;-60
2023/10/19 10:50:21;;;;;;;0.17;0.17;;;;;;;16.85;78.89;97076.81;7366898;19;20011;-59
2023/10/19 10:52:48;;;;;;;0.10;0.10;;;;;;;16.90;79.12;97078.16;7363703;19;20137;-60
2023/10/19 10:55:14;;;;;;;0.10;0.10;;;;;;;16.99;78.95;97082.44;7365120;19;20006;-60
2023/10/19 10:57:41;;;;;;;0.10;0.10;;;;;;;17.07;78.75;97079.78;7365089;19;20031;-61
2023/10/19 11:00:08;;;;;;;0.10;0.10;;;;;;;17.19;79.11;97078.50;7375926;19;20765;-60
2023/10/19 11:02:42;;;;;;;0.10;0.10;;;;;;;17.37;78.66;97071.22;7365056;19;20434;-60
2023/10/19 11:05:11;;;;;;;0.10;0.10;;;;;;;17.62;78.46;97079.09;7365183;19;20017;-61
2023/10/19 11:07:40;;;;;;;0.10;0.10;;;;;;;17.94;78.60;97082.69;7360134;19;20022;-61
2023/10/19 11:10:06;;;;;;;0.00;0.00;;;;;;;18.27;78.01;97078.94;7365738;19;20010;-60
2023/10/19 11:12:32;;;;;;;0.10;0.10;;;;;;;18.66;77.63;97078.09;7364314;19;20013;-61
2023/10/19 11:14:59;;;;;;;0.10;0.10;;;;;;;19.10;76.79;97082.78;7355690;19;20018;-61
2023/10/19 11:17:30;;;;;;;0.10;0.10;;;;;;;19.41;75.49;97062.34;7365156;19;20187;-61
2023/10/19 11:19:59;;;;;;;0.10;0.10;;;;;;;19.90;74.60;97067.16;7365746;19;20840;-61
2023/10/19 11:22:27;;;;;;;0.10;0.10;;;;;;;20.30;73.62;97074.84;7364492;19;20007;-61
2023/10/19 11:24:54;;;;;;;0.10;0.10;;;;;;;20.49;73.36;97076.13;7361433;19;20011;-61
2023/10/19 11:27:26;;;;;;;0.13;0.13;;;;;;;20.82;73.80;97082.59;7368712;19;20699;-61
2023/10/19 11:29:59;;;;;;;0.10;0.10;;;;;;;20.99;73.27;97081.34;7367578;19;20719;-61
2023/10/19 11:32:25;;;;;;;0.10;0.10;;;;;;;21.10;72.63;97082.69;7362257;19;20074;-61
2023/10/19 11:34:55;;;;;;;0.10;0.10;;;;;;;21.24;72.40;97075.69;7357376;19;20017;-61
2023/10/19 11:37:20;;;;;;;0.10;0.10;;;;;;;21.22;72.33;97056.44;7362029;19;20017;-61
2023/10/19 11:39:46;;;;;;;0.10;0.10;;;;;;;21.54;72.37;97070.19;7364973;19;20023;-61
2023/10/19 11:42:12;;;;;;;0.10;0.10;;;;;;;21.73;72.25;97062.38;7363731;19;20010;-61